메인 페이지
METAR-TAF:

METAR-TAF

공항 :

야프 국제공항

야프 섬, 미크로네시아

위도: 09-29N, 경도: 138-05E, 고도: 28m

현재 날씨관측

예보는 33분 전, 16:56시(UTC)에 발표되었습니다.
무풍
온도 26°C
습도 94%
기압 1008 hPa
시정: 19.3km
고도 1600ft 상공 구름 조금
고도 30000ft 상공 구름 많음

METAR: PTYA 171656Z 00000KT 12SM FEW016 BKN300 26/25 A2978 RMK SLP084 T02630252

시각: 03:29 (17:29 UTC)

예보

예보는 6 시간 9분 전, 11:20시(UTC)에 발표되었습니다.
예보 대상 시간: 17일 12시부터 18일 12시까지 (UTC)
여러 방향의 바람 4kt
시정: 10km
고도 1600ft 상공 구름 보통
고도 12000ft 상공 구름 보통
시계 내 소나기
17일 2100시부터 (UTC)
서남서9kt
시정: 10km
고도 1600ft 상공 구름 보통
고도 12000ft 상공 구름 보통
시계 내 소나기

TAF: PTYA 171120Z 1712/1812 VRB04KT P6SM VCSH SCT016 SCT120 FM172100 24009KT P6SM VCSH SCT016 SCT120

4,000개 이상의 공항 관측 자료 및 예보 (METAR 및 TAF 보고).

지도상에서 검색 가능한 기상관측소가 노란 점과 빨간 점으로 표시되어 있습니다.

기상관측소 명을 보려면 표시 위로 마우스를 이동하세요.

날씨 관측과 예보를 보려면 클릭하세요.

지도 변경 : 확대하려면 엑스 표시가 있는 녹색 버튼, 축소하려면 빼기 표시가 있는 녹색 버튼, 다음 페이지의 지도를 보려면 녹색 화살표를 클릭하세요.


METAR-TAF: